Time;durP1;ratioP1;P1;durP2;ratioP2;P2;SDS_P1;SDS_P2;PMS_P1;PMS_P2;Temp;Humidity;BMP_temperature;BMP_pressure;BME280_temperature;BME280_humidity;BME280_pressure;Samples;Min_cycle;Max_cycle;Signal;HPM_P1;HPM_P2
2023/05/13 00:00:37;;;;;;;18.88;6.63;;;;;;;;;;5050045;28;20084;-72
2023/05/13 00:03:03;;;;;;;14.80;5.53;;;;;;;;;;5049803;28;20490;-72
2023/05/13 00:05:30;;;;;;;14.43;6.03;;;;;;;;;;5053276;28;20078;-73
2023/05/13 00:07:56;;;;;;;12.93;5.90;;;;;;;;;;5053101;28;20033;-72
2023/05/13 00:10:22;;;;;;;14.13;5.90;;;;;;;;;;5053196;28;20096;-72
2023/05/13 00:12:48;;;;;;;13.05;6.60;;;;;;;;;;5052906;28;20036;-72
2023/05/13 00:15:14;;;;;;;10.15;5.88;;;;;;;;;;5053209;28;20040;-72
2023/05/13 00:17:40;;;;;;;16.20;6.13;;;;;;;;;;5053105;28;20479;-73
2023/05/13 00:20:06;;;;;;;11.20;5.78;;;;;;;;;;5053020;28;20028;-72
2023/05/13 00:22:32;;;;;;;10.80;5.40;;;;;;;;;;5052839;28;20028;-72
2023/05/13 00:24:58;;;;;;;14.68;6.22;;;;;;;;;;5053246;28;20024;-72
2023/05/13 00:27:24;;;;;;;13.25;6.20;;;;;;;;;;5054217;28;20078;-73
2023/05/13 00:29:50;;;;;;;13.13;5.28;;;;;;;;;;5053137;28;20021;-72
2023/05/13 00:32:16;;;;;;;12.52;5.63;;;;;;;;;;5052483;28;20451;-72
2023/05/13 00:34:42;;;;;;;22.83;5.82;;;;;;;;;;5053251;28;20028;-72
2023/05/13 00:37:09;;;;;;;18.88;6.38;;;;;;;;;;5052942;28;20029;-71
2023/05/13 00:39:35;;;;;;;13.05;6.05;;;;;;;;;;5052899;28;20599;-72
2023/05/13 00:42:03;;;;;;;16.65;6.43;;;;;;;;;;5053965;28;20021;-72
2023/05/13 00:44:29;;;;;;;16.95;6.22;;;;;;;;;;5055455;28;20373;-72
2023/05/13 00:46:56;;;;;;;15.25;5.88;;;;;;;;;;5055738;28;20029;-73
2023/05/13 00:49:22;;;;;;;10.90;5.85;;;;;;;;;;5056570;28;20025;-73
2023/05/13 00:51:49;;;;;;;16.52;5.65;;;;;;;;;;5056634;28;20431;-71
2023/05/13 00:54:15;;;;;;;16.92;6.28;;;;;;;;;;5055943;28;20025;-73
2023/05/13 00:56:41;;;;;;;14.18;6.22;;;;;;;;;;5055126;28;20075;-73
2023/05/13 00:59:07;;;;;;;16.45;5.80;;;;;;;;;;5056468;28;20022;-72
2023/05/13 01:01:33;;;;;;;9.23;5.50;;;;;;;;;;5055417;28;20029;-72
2023/05/13 01:04:09;;;;;;;15.48;6.28;;;;;;;;;;5051044;28;20029;-72
2023/05/13 01:06:50;;;;;;;22.88;6.15;;;;;;;;;;5051216;28;20021;-72
2023/05/13 01:09:19;;;;;;;16.70;6.47;;;;;;;;;;5051159;28;20036;-72
2023/05/13 01:11:46;;;;;;;12.70;5.95;;;;;;;;;;5051286;28;20036;-72
2023/05/13 01:14:21;;;;;;;15.38;6.63;;;;;;;;;;5052124;28;20045;-71
2023/05/13 01:16:55;;;;;;;11.00;5.78;;;;;;;;;;5051561;28;20083;-71
2023/05/13 01:19:53;;;;;;;13.48;5.93;;;;;;;;;;5050818;28;20021;-72
2023/05/13 01:22:19;;;;;;;13.63;6.18;;;;;;;;;;5027977;28;20434;-71
2023/05/13 01:24:45;;;;;;;15.35;5.90;;;;;;;;;;5050267;28;20017;-70
2023/05/13 01:27:11;;;;;;;17.20;6.15;;;;;;;;;;5050981;28;20021;-71
2023/05/13 01:29:37;;;;;;;13.77;6.22;;;;;;;;;;5050714;28;20104;-72
2023/05/13 01:32:04;;;;;;;12.93;5.95;;;;;;;;;;5050408;28;20056;-72
2023/05/13 01:34:30;;;;;;;15.75;6.10;;;;;;;;;;5055330;28;20033;-71
2023/05/13 01:36:57;;;;;;;13.32;6.30;;;;;;;;;;5051779;28;20049;-73
2023/05/13 01:39:23;;;;;;;15.60;6.10;;;;;;;;;;5051359;28;20025;-72
2023/05/13 01:41:49;;;;;;;18.30;6.32;;;;;;;;;;5054560;28;20033;-71
2023/05/13 01:44:15;;;;;;;12.43;6.80;;;;;;;;;;5051169;28;20054;-72
2023/05/13 01:46:45;;;;;;;13.68;6.30;;;;;;;;;;5051271;28;20609;-72
2023/05/13 01:49:11;;;;;;;19.30;7.20;;;;;;;;;;5051089;28;20333;-73
2023/05/13 01:51:37;;;;;;;14.82;7.28;;;;;;;;;;5050951;28;20027;-72
2023/05/13 01:54:04;;;;;;;15.20;6.75;;;;;;;;;;5050948;28;20028;-72
2023/05/13 01:56:29;;;;;;;16.25;6.78;;;;;;;;;;5051292;28;20294;-72
2023/05/13 01:58:55;;;;;;;14.40;7.80;;;;;;;;;;5051018;28;20028;-72
2023/05/13 02:01:21;;;;;;;15.52;7.15;;;;;;;;;;5050992;28;20025;-71
2023/05/13 02:03:47;;;;;;;16.02;7.72;;;;;;;;;;5050591;28;20451;-71
2023/05/13 02:06:13;;;;;;;18.30;7.45;;;;;;;;;;5051702;28;20033;-74
2023/05/13 02:08:39;;;;;;;17.92;7.65;;;;;;;;;;5055342;28;20033;-72
2023/05/13 02:11:05;;;;;;;16.80;7.50;;;;;;;;;;5054754;28;20363;-71
2023/05/13 02:13:31;;;;;;;19.55;7.68;;;;;;;;;;5050758;28;20040;-72
2023/05/13 02:15:57;;;;;;;13.70;7.20;;;;;;;;;;5050528;28;20055;-72
2023/05/13 02:18:23;;;;;;;21.05;7.85;;;;;;;;;;5050370;28;20017;-72
2023/05/13 02:20:49;;;;;;;17.70;8.18;;;;;;;;;;5050420;28;20020;-71
2023/05/13 02:23:16;;;;;;;15.63;8.00;;;;;;;;;;5049965;28;20390;-71
2023/05/13 02:25:42;;;;;;;15.68;8.02;;;;;;;;;;5050407;28;20360;-72
2023/05/13 02:28:09;;;;;;;16.92;7.53;;;;;;;;;;5050471;28;20040;-73
2023/05/13 02:30:35;;;;;;;17.88;7.80;;;;;;;;;;5052239;28;20025;-73
2023/05/13 02:33:01;;;;;;;23.50;8.32;;;;;;;;;;5053928;28;20359;-73
2023/05/13 02:35:30;;;;;;;23.98;8.63;;;;;;;;;;5054179;28;20021;-72
2023/05/13 02:37:57;;;;;;;17.25;8.50;;;;;;;;;;5054103;28;20074;-71
2023/05/13 02:40:22;;;;;;;18.73;8.60;;;;;;;;;;5056792;28;20056;-73
2023/05/13 02:42:49;;;;;;;20.55;9.40;;;;;;;;;;5055762;28;20044;-72
2023/05/13 02:45:15;;;;;;;19.98;7.80;;;;;;;;;;5058191;28;20411;-71
2023/05/13 02:47:41;;;;;;;16.38;9.68;;;;;;;;;;5056966;28;20036;-73
2023/05/13 02:50:08;;;;;;;21.30;8.07;;;;;;;;;;5053789;28;20028;-72
2023/05/13 02:52:35;;;;;;;21.05;9.27;;;;;;;;;;5054891;28;20027;-72
2023/05/13 02:55:01;;;;;;;22.63;9.25;;;;;;;;;;5059008;28;20017;-73
2023/05/13 02:57:27;;;;;;;16.15;9.23;;;;;;;;;;5053339;28;20029;-72
2023/05/13 02:59:53;;;;;;;18.65;9.45;;;;;;;;;;5053703;28;20557;-72
2023/05/13 03:02:19;;;;;;;22.75;8.85;;;;;;;;;;5053312;28;20067;-72
2023/05/13 03:04:46;;;;;;;15.18;9.02;;;;;;;;;;5053475;28;20017;-71
2023/05/13 03:07:12;;;;;;;24.33;9.95;;;;;;;;;;5053485;28;20075;-73
2023/05/13 03:09:38;;;;;;;17.98;10.00;;;;;;;;;;5053244;28;20028;-72
2023/05/13 03:12:05;;;;;;;19.63;9.55;;;;;;;;;;5053199;28;20028;-72
2023/05/13 03:14:33;;;;;;;20.17;9.77;;;;;;;;;;5053189;28;20031;-74
2023/05/13 03:16:59;;;;;;;17.25;9.52;;;;;;;;;;5053405;28;20096;-71
2023/05/13 03:19:25;;;;;;;18.38;9.63;;;;;;;;;;5053144;28;20051;-71
2023/05/13 03:21:52;;;;;;;20.88;9.68;;;;;;;;;;5052853;28;20479;-76
2023/05/13 03:24:18;;;;;;;20.38;10.55;;;;;;;;;;5062259;28;20032;-72
2023/05/13 03:26:44;;;;;;;26.52;10.93;;;;;;;;;;5074163;28;20032;-72
2023/05/13 03:29:10;;;;;;;16.13;10.55;;;;;;;;;;5072822;28;20032;-71
2023/05/13 03:31:36;;;;;;;23.05;11.20;;;;;;;;;;5073431;28;20504;-73
2023/05/13 03:34:02;;;;;;;22.30;10.63;;;;;;;;;;5072579;28;20077;-73
2023/05/13 03:36:28;;;;;;;24.52;11.32;;;;;;;;;;5073011;28;20420;-72
2023/05/13 03:38:54;;;;;;;29.33;10.98;;;;;;;;;;5072969;28;20036;-71
2023/05/13 03:41:20;;;;;;;25.27;12.27;;;;;;;;;;5072909;28;20092;-73
2023/05/13 03:43:46;;;;;;;18.95;11.32;;;;;;;;;;5073291;28;20475;-72
2023/05/13 03:46:12;;;;;;;19.88;11.07;;;;;;;;;;5073713;28;20131;-72
2023/05/13 03:48:38;;;;;;;25.02;12.25;;;;;;;;;;5069775;28;20075;-71
2023/05/13 03:51:04;;;;;;;21.20;12.30;;;;;;;;;;5053654;28;20363;-73
2023/05/13 03:53:30;;;;;;;21.15;11.95;;;;;;;;;;5053706;28;20475;-73
2023/05/13 03:55:56;;;;;;;26.55;12.45;;;;;;;;;;5054225;28;20043;-73
2023/05/13 03:58:22;;;;;;;26.55;12.80;;;;;;;;;;5054215;28;20025;-71
2023/05/13 04:00:48;;;;;;;23.83;11.75;;;;;;;;;;5053742;28;20041;-72
2023/05/13 04:03:16;;;;;;;19.08;12.07;;;;;;;;;;5053629;28;20029;-72
2023/05/13 04:05:41;;;;;;;26.40;14.35;;;;;;;;;;5053441;28;20017;-71
2023/05/13 04:08:07;;;;;;;28.38;13.25;;;;;;;;;;5053154;28;20033;-72
2023/05/13 04:10:33;;;;;;;25.77;13.27;;;;;;;;;;5053768;28;20474;-72
2023/05/13 04:12:59;;;;;;;35.60;14.23;;;;;;;;;;5052713;28;20025;-71
2023/05/13 04:15:25;;;;;;;28.67;13.98;;;;;;;;;;5053165;28;20112;-71
2023/05/13 04:17:52;;;;;;;26.25;13.73;;;;;;;;;;5053187;28;20029;-72
2023/05/13 04:20:18;;;;;;;22.85;12.57;;;;;;;;;;5053106;28;20513;-72
2023/05/13 04:22:44;;;;;;;24.73;12.70;;;;;;;;;;5052650;28;20068;-71
2023/05/13 04:25:10;;;;;;;25.38;13.05;;;;;;;;;;5053912;28;20096;-71
2023/05/13 04:27:36;;;;;;;25.17;11.95;;;;;;;;;;5053775;28;20154;-72
2023/05/13 04:30:02;;;;;;;30.08;14.95;;;;;;;;;;5053660;28;20048;-72
2023/05/13 04:32:28;;;;;;;24.55;12.75;;;;;;;;;;5052373;28;20364;-72
2023/05/13 04:34:54;;;;;;;24.48;12.25;;;;;;;;;;5052820;28;20099;-72
2023/05/13 04:37:20;;;;;;;21.10;12.38;;;;;;;;;;5052785;28;20033;-72
2023/05/13 04:39:47;;;;;;;22.83;13.68;;;;;;;;;;5052724;28;20064;-72
2023/05/13 04:42:13;;;;;;;22.55;12.60;;;;;;;;;;5052340;28;20463;-72
2023/05/13 04:44:39;;;;;;;22.38;12.20;;;;;;;;;;5052557;28;20029;-72
2023/05/13 04:47:06;;;;;;;23.45;12.75;;;;;;;;;;5055048;28;20382;-71
2023/05/13 04:49:32;;;;;;;26.88;13.00;;;;;;;;;;5054744;28;20061;-77
2023/05/13 04:51:58;;;;;;;23.63;14.07;;;;;;;;;;5054069;28;20032;-72
2023/05/13 04:54:24;;;;;;;21.60;13.75;;;;;;;;;;5053394;28;20364;-73
2023/05/13 04:56:51;;;;;;;25.92;14.45;;;;;;;;;;5054161;28;20083;-73
2023/05/13 04:59:17;;;;;;;24.95;14.45;;;;;;;;;;5055063;28;20021;-72
2023/05/13 05:01:43;;;;;;;25.33;14.00;;;;;;;;;;5053377;28;20120;-72
2023/05/13 05:04:10;;;;;;;26.98;13.30;;;;;;;;;;5055899;28;20437;-72
2023/05/13 05:06:36;;;;;;;23.30;13.93;;;;;;;;;;5056183;28;20084;-73
2023/05/13 05:09:01;;;;;;;26.40;15.18;;;;;;;;;;5055847;28;20447;-72
2023/05/13 05:11:27;;;;;;;25.45;15.15;;;;;;;;;;5055472;28;20067;-72
2023/05/13 05:13:53;;;;;;;25.23;13.15;;;;;;;;;;5054692;28;20364;-73
2023/05/13 05:16:19;;;;;;;26.90;13.88;;;;;;;;;;5055243;28;20025;-72
2023/05/13 05:18:45;;;;;;;27.10;13.52;;;;;;;;;;5055371;28;20021;-73
2023/05/13 05:21:12;;;;;;;21.20;12.70;;;;;;;;;;5053485;28;20548;-73
2023/05/13 05:23:38;;;;;;;30.73;13.07;;;;;;;;;;5053975;28;20095;-74
2023/05/13 05:26:04;;;;;;;22.88;12.52;;;;;;;;;;5052851;28;20036;-74
2023/05/13 05:28:30;;;;;;;22.58;12.52;;;;;;;;;;5052605;28;20025;-73
2023/05/13 05:30:56;;;;;;;21.83;13.40;;;;;;;;;;5053299;28;20486;-75
2023/05/13 05:33:22;;;;;;;28.73;13.38;;;;;;;;;;5052390;28;20029;-73
2023/05/13 05:35:49;;;;;;;23.23;12.35;;;;;;;;;;5052245;28;20368;-71
2023/05/13 05:38:15;;;;;;;29.35;13.65;;;;;;;;;;5052091;28;20032;-71
2023/05/13 05:40:45;;;;;;;28.08;12.98;;;;;;;;;;5051533;28;20105;-72
2023/05/13 05:43:11;;;;;;;24.13;12.73;;;;;;;;;;5054827;28;20029;-72
2023/05/13 05:45:37;;;;;;;22.08;11.80;;;;;;;;;;5053329;28;20055;-72
2023/05/13 05:48:04;;;;;;;25.02;12.38;;;;;;;;;;5054573;28;20360;-72
2023/05/13 05:50:30;;;;;;;28.67;12.45;;;;;;;;;;5057150;28;20029;-72
2023/05/13 05:52:58;;;;;;;27.15;12.32;;;;;;;;;;5052338;28;20029;-72
2023/05/13 05:55:24;;;;;;;17.73;10.45;;;;;;;;;;5052423;28;20017;-72
2023/05/13 05:57:50;;;;;;;19.75;10.88;;;;;;;;;;5060276;28;20028;-73
2023/05/13 06:00:16;;;;;;;20.77;10.45;;;;;;;;;;5051881;28;20112;-71
2023/05/13 06:02:42;;;;;;;23.45;11.20;;;;;;;;;;5051605;28;20378;-72
2023/05/13 06:05:08;;;;;;;25.85;10.73;;;;;;;;;;5053163;28;20032;-72
2023/05/13 06:07:34;;;;;;;25.02;10.75;;;;;;;;;;5051365;28;20108;-74
2023/05/13 06:10:00;;;;;;;21.88;10.18;;;;;;;;;;5051883;28;20098;-72
2023/05/13 06:12:26;;;;;;;19.23;10.15;;;;;;;;;;5052289;28;20037;-73
2023/05/13 06:14:52;;;;;;;17.60;9.65;;;;;;;;;;5053312;28;20032;-72
2023/05/13 06:17:18;;;;;;;21.55;10.27;;;;;;;;;;5052908;28;20104;-73
2023/05/13 06:19:44;;;;;;;18.02;9.40;;;;;;;;;;5052175;28;20463;-72
2023/05/13 06:22:10;;;;;;;29.08;9.38;;;;;;;;;;5052097;28;20477;-73
2023/05/13 06:24:37;;;;;;;22.10;9.50;;;;;;;;;;5053134;28;20032;-72
2023/05/13 06:27:04;;;;;;;22.52;9.00;;;;;;;;;;5050635;28;20029;-71
2023/05/13 06:29:30;;;;;;;18.42;10.13;;;;;;;;;;5051169;28;20035;-73
2023/05/13 06:31:56;;;;;;;18.50;9.57;;;;;;;;;;5051057;28;20059;-73
2023/05/13 06:34:22;;;;;;;19.05;8.80;;;;;;;;;;5051316;28;20489;-72
2023/05/13 06:36:48;;;;;;;20.38;9.23;;;;;;;;;;5051294;28;20096;-72
2023/05/13 06:39:14;;;;;;;22.00;8.82;;;;;;;;;;5051220;28;20013;-72
2023/05/13 06:41:40;;;;;;;20.77;9.43;;;;;;;;;;5052994;28;20017;-71
2023/05/13 06:44:07;;;;;;;21.23;8.73;;;;;;;;;;5053376;28;20031;-74
2023/05/13 06:46:33;;;;;;;21.73;9.32;;;;;;;;;;5053331;28;20057;-73
2023/05/13 06:48:59;;;;;;;18.70;8.20;;;;;;;;;;5051333;28;20109;-71
2023/05/13 06:51:26;;;;;;;19.52;8.65;;;;;;;;;;5051093;28;20029;-71
2023/05/13 06:53:52;;;;;;;17.70;8.13;;;;;;;;;;5048424;28;20021;-69
2023/05/13 06:56:18;;;;;;;20.85;8.40;;;;;;;;;;5051192;28;20114;-70
2023/05/13 06:58:44;;;;;;;23.15;7.93;;;;;;;;;;5050839;28;20033;-75
2023/05/13 07:01:10;;;;;;;12.73;7.18;;;;;;;;;;5050792;28;20536;-71
2023/05/13 07:03:37;;;;;;;20.55;7.47;;;;;;;;;;5050801;28;20036;-72
2023/05/13 07:06:03;;;;;;;22.02;7.82;;;;;;;;;;5051164;28;20029;-72
2023/05/13 07:08:29;;;;;;;22.70;7.88;;;;;;;;;;5051039;28;20491;-72
2023/05/13 07:10:55;;;;;;;18.02;6.88;;;;;;;;;;5051475;28;20029;-73
2023/05/13 07:13:21;;;;;;;16.25;6.80;;;;;;;;;;5051422;28;20036;-71
2023/05/13 07:15:48;;;;;;;17.10;7.18;;;;;;;;;;5051968;28;20067;-71
2023/05/13 07:18:14;;;;;;;20.40;7.50;;;;;;;;;;5055621;28;20021;-72
2023/05/13 07:20:40;;;;;;;15.23;6.88;;;;;;;;;;5055781;28;20021;-71
2023/05/13 07:23:06;;;;;;;23.23;7.90;;;;;;;;;;5055041;28;20507;-72
2023/05/13 07:25:32;;;;;;;20.30;7.30;;;;;;;;;;5058980;28;20107;-72
2023/05/13 07:27:58;;;;;;;13.63;6.65;;;;;;;;;;5071279;28;20040;-74
2023/05/13 07:30:24;;;;;;;17.13;7.25;;;;;;;;;;5058980;28;20043;-74
2023/05/13 07:32:50;;;;;;;21.92;10.15;;;;;;;;;;5055543;28;20546;-71
2023/05/13 07:35:16;;;;;;;17.10;6.32;;;;;;;;;;5054854;28;20056;-72
2023/05/13 07:37:43;;;;;;;16.17;6.78;;;;;;;;;;5053933;28;20079;-72
2023/05/13 07:40:10;;;;;;;17.95;6.63;;;;;;;;;;5053985;28;20394;-71
2023/05/13 07:42:36;;;;;;;19.73;5.97;;;;;;;;;;5053839;28;20032;-70
2023/05/13 07:45:02;;;;;;;19.88;6.03;;;;;;;;;;5053709;28;20034;-71
2023/05/13 07:47:30;;;;;;;17.40;6.28;;;;;;;;;;5053806;28;20028;-73
2023/05/13 07:49:56;;;;;;;12.48;6.30;;;;;;;;;;5054266;28;20021;-71
2023/05/13 07:52:22;;;;;;;18.23;6.55;;;;;;;;;;5054692;28;20097;-72
2023/05/13 07:54:48;;;;;;;14.10;6.40;;;;;;;;;;5055463;28;20013;-73
2023/05/13 07:57:14;;;;;;;18.17;6.43;;;;;;;;;;5055045;28;20104;-73
2023/05/13 07:59:40;;;;;;;13.18;5.82;;;;;;;;;;5055038;28;20025;-73
2023/05/13 08:02:07;;;;;;;17.42;6.07;;;;;;;;;;5055345;28;20029;-73
2023/05/13 08:04:33;;;;;;;26.25;6.38;;;;;;;;;;5053777;28;20024;-71
2023/05/13 08:07:00;;;;;;;24.02;6.57;;;;;;;;;;5053617;28;20112;-72
2023/05/13 08:09:27;;;;;;;17.13;5.88;;;;;;;;;;5053582;28;20047;-71
2023/05/13 08:11:56;;;;;;;9.82;5.15;;;;;;;;;;5053263;28;20112;-72
2023/05/13 08:14:22;;;;;;;13.70;5.25;;;;;;;;;;5053665;28;20029;-71
2023/05/13 08:16:48;;;;;;;16.98;5.97;;;;;;;;;;5053719;28;20031;-72
2023/05/13 08:19:14;;;;;;;15.77;5.85;;;;;;;;;;5053470;28;20025;-71
2023/05/13 08:21:41;;;;;;;12.52;5.53;;;;;;;;;;5053443;28;20506;-72
2023/05/13 08:24:07;;;;;;;16.35;6.05;;;;;;;;;;5053031;28;20040;-71
2023/05/13 08:26:33;;;;;;;11.43;4.55;;;;;;;;;;5053178;28;20028;-71
2023/05/13 08:28:59;;;;;;;12.90;4.80;;;;;;;;;;5052137;28;20442;-72
2023/05/13 08:31:25;;;;;;;12.68;4.93;;;;;;;;;;5052958;28;20025;-72
2023/05/13 08:33:52;;;;;;;16.90;4.93;;;;;;;;;;5052615;28;20032;-72
2023/05/13 08:36:18;;;;;;;13.20;5.18;;;;;;;;;;5053134;28;20021;-71
2023/05/13 08:38:44;;;;;;;16.73;5.32;;;;;;;;;;5053312;28;20013;-73
2023/05/13 08:41:12;;;;;;;14.05;5.05;;;;;;;;;;5053754;28;20075;-73
2023/05/13 08:43:38;;;;;;;12.48;4.80;;;;;;;;;;5054130;28;20060;-73
2023/05/13 08:46:06;;;;;;;11.85;4.75;;;;;;;;;;5052980;28;20036;-71
2023/05/13 08:48:33;;;;;;;23.23;5.15;;;;;;;;;;5054538;28;20032;-72
2023/05/13 08:51:01;;;;;;;8.75;4.60;;;;;;;;;;5055038;28;20033;-72
2023/05/13 08:53:27;;;;;;;13.88;4.13;;;;;;;;;;5048423;28;20075;-73
2023/05/13 08:55:53;;;;;;;10.25;3.97;;;;;;;;;;5053575;28;20028;-72
2023/05/13 08:58:19;;;;;;;15.55;4.50;;;;;;;;;;5056023;28;20024;-73
2023/05/13 09:00:46;;;;;;;16.13;5.53;;;;;;;;;;5057177;28;20105;-73
2023/05/13 09:03:12;;;;;;;15.20;5.15;;;;;;;;;;5055155;28;20025;-73
2023/05/13 09:05:38;;;;;;;10.98;4.53;;;;;;;;;;5055370;28;20033;-72
2023/05/13 09:08:10;;;;;;;15.07;4.18;;;;;;;;;;5054970;28;20035;-73
2023/05/13 09:10:36;;;;;;;16.58;4.82;;;;;;;;;;5053908;28;20032;-73
2023/05/13 09:13:03;;;;;;;12.30;3.95;;;;;;;;;;5053845;28;20032;-72
2023/05/13 09:15:30;;;;;;;16.02;4.57;;;;;;;;;;5054255;28;20075;-72
2023/05/13 09:17:56;;;;;;;20.17;4.55;;;;;;;;;;5056471;28;20078;-73
2023/05/13 09:20:24;;;;;;;7.78;4.00;;;;;;;;;;5055188;28;20029;-72
2023/05/13 09:22:51;;;;;;;16.27;4.45;;;;;;;;;;5055187;28;20510;-73
2023/05/13 09:25:17;;;;;;;14.00;4.22;;;;;;;;;;5054472;28;20050;-73
2023/05/13 09:27:47;;;;;;;22.85;4.20;;;;;;;;;;5054049;28;20052;-72
2023/05/13 09:30:13;;;;;;;20.52;4.10;;;;;;;;;;5052511;28;20074;-71
2023/05/13 09:32:41;;;;;;;10.95;3.88;;;;;;;;;;5051662;28;20024;-71
2023/05/13 09:35:17;;;;;;;12.23;4.18;;;;;;;;;;5052723;28;20017;-72
2023/05/13 09:37:46;;;;;;;14.15;4.03;;;;;;;;;;5053819;28;20615;-73
2023/05/13 09:40:16;;;;;;;11.82;4.22;;;;;;;;;;5053050;28;20017;-73
2023/05/13 09:42:43;;;;;;;14.82;4.32;;;;;;;;;;5055304;28;20036;-73
2023/05/13 09:45:09;;;;;;;13.23;4.32;;;;;;;;;;5052695;28;20064;-74
2023/05/13 09:47:36;;;;;;;12.18;3.70;;;;;;;;;;5051470;28;20079;-72
2023/05/13 09:50:02;;;;;;;15.32;4.13;;;;;;;;;;5051408;28;20040;-72
2023/05/13 09:52:31;;;;;;;7.93;4.35;;;;;;;;;;5051172;28;20025;-73
2023/05/13 09:54:58;;;;;;;14.68;3.97;;;;;;;;;;5051730;28;20479;-72
2023/05/13 09:57:26;;;;;;;14.75;4.05;;;;;;;;;;5051746;28;20025;-73
2023/05/13 09:59:56;;;;;;;9.32;3.80;;;;;;;;;;5051804;28;20108;-74
2023/05/13 10:02:22;;;;;;;11.52;3.90;;;;;;;;;;5051446;28;20055;-75
2023/05/13 10:04:48;;;;;;;11.23;3.70;;;;;;;;;;5051884;28;20020;-77
2023/05/13 10:07:14;;;;;;;9.38;4.15;;;;;;;;;;5051701;28;20040;-74
2023/05/13 10:09:43;;;;;;;7.97;3.97;;;;;;;;;;5051697;28;20021;-74
2023/05/13 10:12:09;;;;;;;17.73;7.22;;;;;;;;;;5051239;28;20025;-73
2023/05/13 10:14:37;;;;;;;15.18;6.40;;;;;;;;;;5051520;28;20107;-73
2023/05/13 10:17:04;;;;;;;16.60;4.05;;;;;;;;;;5051257;28;20026;-73
2023/05/13 10:19:30;;;;;;;13.70;3.55;;;;;;;;;;5051544;28;20552;-74
2023/05/13 10:21:56;;;;;;;14.85;4.45;;;;;;;;;;5048469;28;20021;-74
2023/05/13 10:24:22;;;;;;;11.07;3.78;;;;;;;;;;5042584;28;20025;-71
2023/05/13 10:26:51;;;;;;;10.98;3.92;;;;;;;;;;5041206;28;20669;-73
2023/05/13 10:29:17;;;;;;;9.75;3.90;;;;;;;;;;5039281;28;20049;-73
2023/05/13 10:31:44;;;;;;;9.38;3.70;;;;;;;;;;5042319;28;20036;-72
2023/05/13 10:34:10;;;;;;;12.73;4.00;;;;;;;;;;5052861;28;20031;-72
2023/05/13 10:36:55;;;;;;;13.50;4.22;;;;;;;;;;5056582;28;20433;-74
2023/05/13 10:39:30;;;;;;;7.75;3.70;;;;;;;;;;5045946;28;20108;-74
2023/05/13 10:41:56;;;;;;;9.98;4.00;;;;;;;;;;5044553;28;20031;-74
2023/05/13 10:44:23;;;;;;;13.07;4.03;;;;;;;;;;5056787;28;20025;-73
2023/05/13 10:46:49;;;;;;;12.98;3.80;;;;;;;;;;5051856;28;20417;-73
2023/05/13 10:49:15;;;;;;;11.18;3.35;;;;;;;;;;5045756;28;20025;-74
2023/05/13 10:51:46;;;;;;;9.40;3.90;;;;;;;;;;5040480;28;20482;-73
2023/05/13 10:54:23;;;;;;;14.15;7.30;;;;;;;;;;5053769;28;20108;-72
2023/05/13 10:56:59;;;;;;;11.90;4.10;;;;;;;;;;5047439;28;20353;-73
2023/05/13 10:59:29;;;;;;;12.60;3.67;;;;;;;;;;5044357;28;20027;-73
2023/05/13 11:01:55;;;;;;;8.10;3.83;;;;;;;;;;5051693;28;20027;-72
2023/05/13 11:04:21;;;;;;;11.05;3.80;;;;;;;;;;5044861;28;20111;-72
2023/05/13 11:06:48;;;;;;;9.13;3.65;;;;;;;;;;5052936;28;20041;-73
2023/05/13 11:09:15;;;;;;;12.20;3.92;;;;;;;;;;5045928;28;20047;-73
2023/05/13 11:11:41;;;;;;;10.45;3.58;;;;;;;;;;5037410;28;20052;-72
2023/05/13 11:14:18;;;;;;;10.60;3.63;;;;;;;;;;5037612;28;20103;-72
2023/05/13 11:16:47;;;;;;;12.95;5.20;;;;;;;;;;5037296;28;20380;-72
2023/05/13 11:19:21;;;;;;;11.60;4.22;;;;;;;;;;5039022;28;20495;-72
2023/05/13 11:21:50;;;;;;;12.93;4.13;;;;;;;;;;5039281;28;20467;-72
2023/05/13 11:24:17;;;;;;;13.30;4.72;;;;;;;;;;5038856;28;20021;-72
2023/05/13 11:26:55;;;;;;;11.82;4.70;;;;;;;;;;5037376;28;20431;-75
2023/05/13 11:29:27;;;;;;;17.15;4.30;;;;;;;;;;5036849;28;20018;-74
2023/05/13 11:31:56;;;;;;;9.30;3.90;;;;;;;;;;5037310;28;20468;-74
2023/05/13 11:34:22;;;;;;;12.10;4.97;;;;;;;;;;5036038;28;20021;-73
2023/05/13 11:36:49;;;;;;;9.00;3.67;;;;;;;;;;5034725;28;20041;-73
2023/05/13 11:39:20;;;;;;;9.82;3.92;;;;;;;;;;5034486;28;20026;-73
2023/05/13 11:41:47;;;;;;;16.65;4.10;;;;;;;;;;5034223;28;20503;-72
2023/05/13 11:44:15;;;;;;;14.63;3.83;;;;;;;;;;5034281;28;20091;-73
2023/05/13 11:46:50;;;;;;;10.60;3.50;;;;;;;;;;5033906;28;20029;-72
2023/05/13 11:49:35;;;;;;;9.65;3.72;;;;;;;;;;5033919;28;20032;-73
2023/05/13 11:52:01;;;;;;;14.82;3.80;;;;;;;;;;5033891;28;20355;-73
2023/05/13 11:54:27;;;;;;;13.23;3.67;;;;;;;;;;5034080;28;20037;-73
2023/05/13 11:56:53;;;;;;;13.20;3.47;;;;;;;;;;5033951;28;20021;-73
2023/05/13 11:59:19;;;;;;;12.95;4.05;;;;;;;;;;5033914;28;20494;-73
2023/05/13 12:01:45;;;;;;;16.50;3.50;;;;;;;;;;5033311;28;20365;-72
2023/05/13 12:04:12;;;;;;;13.57;4.55;;;;;;;;;;5033703;28;20029;-73
2023/05/13 12:06:47;;;;;;;11.50;3.83;;;;;;;;;;5033924;28;20029;-74
2023/05/13 12:09:13;;;;;;;9.85;4.13;;;;;;;;;;5034195;28;20037;-73
2023/05/13 12:11:40;;;;;;;16.48;3.70;;;;;;;;;;5036331;28;20049;-74
2023/05/13 12:14:06;;;;;;;12.60;3.40;;;;;;;;;;5035123;28;20025;-73
2023/05/13 12:16:32;;;;;;;6.93;3.13;;;;;;;;;;5036694;28;20057;-73
2023/05/13 12:19:07;;;;;;;11.27;3.60;;;;;;;;;;5032563;28;20026;-73
2023/05/13 12:21:34;;;;;;;7.05;3.03;;;;;;;;;;5070811;28;20566;-74
2023/05/13 12:24:00;;;;;;;5.50;2.58;;;;;;;;;;5072791;28;20024;-73
2023/05/13 12:26:26;;;;;;;10.95;3.13;;;;;;;;;;5073208;28;20039;-73
2023/05/13 12:28:59;;;;;;;10.45;3.67;;;;;;;;;;5072769;28;20028;-73
2023/05/13 12:31:25;;;;;;;10.10;3.35;;;;;;;;;;5049903;28;20033;-73
2023/05/13 12:33:51;;;;;;;10.40;3.00;;;;;;;;;;5032997;28;20036;-74
2023/05/13 12:36:20;;;;;;;17.55;3.70;;;;;;;;;;5033373;28;20017;-72
2023/05/13 12:38:59;;;;;;;10.40;4.60;;;;;;;;;;5033196;28;20026;-73
2023/05/13 12:41:26;;;;;;;10.63;3.25;;;;;;;;;;5033360;28;20053;-74
2023/05/13 12:43:57;;;;;;;8.65;3.85;;;;;;;;;;5037026;28;20029;-75
2023/05/13 12:46:23;;;;;;;9.75;2.78;;;;;;;;;;5038911;28;20060;-74
2023/05/13 12:48:51;;;;;;;11.40;3.25;;;;;;;;;;5037474;28;20031;-74
2023/05/13 12:51:17;;;;;;;8.43;2.67;;;;;;;;;;5035858;28;20729;-72
2023/05/13 12:53:43;;;;;;;8.13;3.17;;;;;;;;;;5033968;28;20119;-73
2023/05/13 12:56:09;;;;;;;7.18;3.13;;;;;;;;;;5033159;28;20080;-73
2023/05/13 12:58:35;;;;;;;9.85;2.60;;;;;;;;;;5033199;28;20033;-74
2023/05/13 13:01:01;;;;;;;6.75;2.50;;;;;;;;;;5033981;28;20025;-74
2023/05/13 13:03:27;;;;;;;12.45;2.78;;;;;;;;;;5033304;28;20070;-73
2023/05/13 13:05:53;;;;;;;11.02;3.45;;;;;;;;;;5032974;28;20033;-74
2023/05/13 13:08:20;;;;;;;9.60;3.50;;;;;;;;;;5032810;28;20566;-74
2023/05/13 13:10:46;;;;;;;9.20;2.88;;;;;;;;;;5032479;28;20473;-73
2023/05/13 13:13:12;;;;;;;6.45;2.85;;;;;;;;;;5031535;28;20076;-75
2023/05/13 13:15:38;;;;;;;6.80;2.78;;;;;;;;;;5032691;28;20037;-74
2023/05/13 13:18:04;;;;;;;10.10;3.60;;;;;;;;;;5034446;28;20025;-73
2023/05/13 13:20:30;;;;;;;7.32;2.70;;;;;;;;;;5040413;28;20014;-74
2023/05/13 13:22:58;;;;;;;4.88;2.97;;;;;;;;;;5033929;28;20048;-74
2023/05/13 13:25:24;;;;;;;7.80;2.47;;;;;;;;;;5034892;28;20052;-73
2023/05/13 13:27:50;;;;;;;12.30;2.63;;;;;;;;;;5031551;28;20029;-74
2023/05/13 13:30:16;;;;;;;5.85;2.63;;;;;;;;;;5033590;28;20466;-74
2023/05/13 13:32:42;;;;;;;8.93;2.85;;;;;;;;;;5033280;28;20100;-73
2023/05/13 13:35:08;;;;;;;12.68;3.03;;;;;;;;;;5035356;28;20424;-74
2023/05/13 13:37:34;;;;;;;8.90;2.80;;;;;;;;;;5033367;28;20032;-76
2023/05/13 13:40:00;;;;;;;9.93;3.20;;;;;;;;;;5031721;28;20025;-75
2023/05/13 13:42:26;;;;;;;8.65;2.97;;;;;;;;;;5031566;28;20021;-77
2023/05/13 13:44:52;;;;;;;5.93;2.90;;;;;;;;;;5032369;28;20033;-78
2023/05/13 13:47:18;;;;;;;6.85;2.80;;;;;;;;;;5032206;28;20025;-79
2023/05/13 13:49:44;;;;;;;13.75;3.53;;;;;;;;;;5032469;28;20084;-77
2023/05/13 13:52:10;;;;;;;12.23;3.45;;;;;;;;;;5032598;28;20093;-79
2023/05/13 13:54:36;;;;;;;6.70;2.38;;;;;;;;;;5032724;28;20025;-77
2023/05/13 13:57:02;;;;;;;11.32;2.60;;;;;;;;;;5033495;28;20100;-77
2023/05/13 13:59:28;;;;;;;8.38;3.17;;;;;;;;;;5032623;28;20017;-77
2023/05/13 14:01:55;;;;;;;12.68;3.60;;;;;;;;;;5031598;28;20472;-76
2023/05/13 14:04:24;;;;;;;5.38;2.50;;;;;;;;;;5033704;28;20025;-78
2023/05/13 14:06:50;;;;;;;10.52;3.70;;;;;;;;;;5032172;28;20018;-81
2023/05/13 14:09:17;;;;;;;10.38;3.35;;;;;;;;;;5033331;28;20034;-80
2023/05/13 14:11:43;;;;;;;10.52;3.13;;;;;;;;;;5033156;28;20025;-78
2023/05/13 14:14:09;;;;;;;5.60;2.67;;;;;;;;;;5032381;28;20040;-79
2023/05/13 14:16:35;;;;;;;25.02;6.70;;;;;;;;;;5034344;28;20030;-77
2023/05/13 14:19:01;;;;;;;16.05;3.63;;;;;;;;;;5031532;28;20026;-76
2023/05/13 14:21:27;;;;;;;8.10;3.35;;;;;;;;;;5031673;28;20120;-77
2023/05/13 14:23:53;;;;;;;6.35;2.67;;;;;;;;;;5031611;28;20029;-77
2023/05/13 14:26:20;;;;;;;9.68;3.22;;;;;;;;;;5034755;28;20030;-76